sensor_id;sensor_type;location;lat;lon;timestamp;pressure;altitude;pressure_sealevel;temperature;humidity
38452;BME280;24231;52.514;13.438;2023-04-26T00:02:09;100873.83;;;7.06;49.43
38452;BME280;24231;52.514;13.438;2023-04-26T00:04:37;100880.73;;;6.50;49.60
38452;BME280;24231;52.514;13.438;2023-04-26T00:07:05;100877.97;;;6.89;48.85
38452;BME280;24231;52.514;13.438;2023-04-26T00:09:33;100873.62;;;7.20;47.81
38452;BME280;24231;52.514;13.438;2023-04-26T00:12:01;100876.48;;;7.60;47.28
38452;BME280;24231;52.514;13.438;2023-04-26T00:14:27;100878.22;;;8.06;46.48
38452;BME280;24231;52.514;13.438;2023-04-26T00:16:55;100875.39;;;7.53;47.76
38452;BME280;24231;52.514;13.438;2023-04-26T00:19:22;100876.94;;;7.68;47.65
38452;BME280;24231;52.514;13.438;2023-04-26T00:21:50;100877.01;;;7.44;48.42
38452;BME280;24231;52.514;13.438;2023-04-26T00:24:17;100873.86;;;7.58;47.78
38452;BME280;24231;52.514;13.438;2023-04-26T00:26:45;100878.15;;;7.71;47.72
38452;BME280;24231;52.514;13.438;2023-04-26T00:29:12;100883.22;;;8.07;47.00
38452;BME280;24231;52.514;13.438;2023-04-26T00:31:39;100878.71;;;8.04;47.21
38452;BME280;24231;52.514;13.438;2023-04-26T00:34:07;100875.55;;;7.52;48.49
38452;BME280;24231;52.514;13.438;2023-04-26T00:36:34;100885.85;;;6.49;51.11
38452;BME280;24231;52.514;13.438;2023-04-26T00:39:02;100880.94;;;6.46;50.98
38452;BME280;24231;52.514;13.438;2023-04-26T00:41:29;100878.52;;;7.44;48.77
38452;BME280;24231;52.514;13.438;2023-04-26T00:43:56;100878.70;;;7.33;48.75
38452;BME280;24231;52.514;13.438;2023-04-26T00:46:23;100877.28;;;7.49;48.24
38452;BME280;24231;52.514;13.438;2023-04-26T00:48:51;100881.10;;;6.56;51.38
38452;BME280;24231;52.514;13.438;2023-04-26T00:51:18;100875.93;;;7.20;49.21
38452;BME280;24231;52.514;13.438;2023-04-26T00:53:46;100879.43;;;7.50;49.41
38452;BME280;24231;52.514;13.438;2023-04-26T00:56:15;100879.37;;;6.90;50.77
38452;BME280;24231;52.514;13.438;2023-04-26T00:58:42;100882.90;;;6.95;50.27
38452;BME280;24231;52.514;13.438;2023-04-26T01:01:10;100882.02;;;6.87;50.59
38452;BME280;24231;52.514;13.438;2023-04-26T01:03:37;100883.06;;;7.30;49.90
38452;BME280;24231;52.514;13.438;2023-04-26T01:06:05;100886.06;;;7.15;50.26
38452;BME280;24231;52.514;13.438;2023-04-26T01:08:32;100887.41;;;6.27;52.14
38452;BME280;24231;52.514;13.438;2023-04-26T01:10:59;100889.57;;;6.84;50.83
38452;BME280;24231;52.514;13.438;2023-04-26T01:13:28;100890.29;;;5.63;54.25
38452;BME280;24231;52.514;13.438;2023-04-26T01:15:55;100888.13;;;6.18;52.86
38452;BME280;24231;52.514;13.438;2023-04-26T01:18:23;100888.85;;;6.36;52.43
38452;BME280;24231;52.514;13.438;2023-04-26T01:20:50;100890.67;;;6.56;52.21
38452;BME280;24231;52.514;13.438;2023-04-26T01:23:17;100897.73;;;6.72;51.43
38452;BME280;24231;52.514;13.438;2023-04-26T01:25:45;100895.06;;;7.01;51.09
38452;BME280;24231;52.514;13.438;2023-04-26T01:28:12;100897.25;;;6.83;51.45
38452;BME280;24231;52.514;13.438;2023-04-26T01:30:40;100895.94;;;6.66;52.02
38452;BME280;24231;52.514;13.438;2023-04-26T01:33:07;100898.27;;;7.10;51.00
38452;BME280;24231;52.514;13.438;2023-04-26T01:35:35;100899.25;;;6.80;51.42
38452;BME280;24231;52.514;13.438;2023-04-26T01:38:02;100907.39;;;6.13;53.74
38452;BME280;24231;52.514;13.438;2023-04-26T01:40:30;100907.97;;;6.66;51.90
38452;BME280;24231;52.514;13.438;2023-04-26T01:42:57;100911.51;;;6.91;51.38
38452;BME280;24231;52.514;13.438;2023-04-26T01:45:25;100915.48;;;6.47;52.64
38452;BME280;24231;52.514;13.438;2023-04-26T01:47:52;100909.55;;;6.03;53.52
38452;BME280;24231;52.514;13.438;2023-04-26T01:50:20;100911.27;;;6.27;52.89
38452;BME280;24231;52.514;13.438;2023-04-26T01:52:47;100914.62;;;6.17;52.99
38452;BME280;24231;52.514;13.438;2023-04-26T01:55:15;100915.09;;;5.70;54.66
38452;BME280;24231;52.514;13.438;2023-04-26T01:57:42;100913.80;;;5.80;54.51
38452;BME280;24231;52.514;13.438;2023-04-26T02:00:10;100915.63;;;5.97;53.75
38452;BME280;24231;52.514;13.438;2023-04-26T02:02:38;100914.64;;;6.77;52.43
38452;BME280;24231;52.514;13.438;2023-04-26T02:05:07;100916.38;;;6.25;53.58
38452;BME280;24231;52.514;13.438;2023-04-26T02:07:34;100912.60;;;6.86;52.03
38452;BME280;24231;52.514;13.438;2023-04-26T02:10:02;100913.25;;;6.40;52.85
38452;BME280;24231;52.514;13.438;2023-04-26T02:12:29;100913.81;;;6.92;52.46
38452;BME280;24231;52.514;13.438;2023-04-26T02:14:57;100912.92;;;6.24;53.51
38452;BME280;24231;52.514;13.438;2023-04-26T02:17:25;100915.21;;;6.74;53.16
38452;BME280;24231;52.514;13.438;2023-04-26T02:19:53;100912.99;;;6.75;52.54
38452;BME280;24231;52.514;13.438;2023-04-26T02:22:19;100910.71;;;6.30;53.45
38452;BME280;24231;52.514;13.438;2023-04-26T02:24:48;100908.14;;;6.38;53.22
38452;BME280;24231;52.514;13.438;2023-04-26T02:27:16;100911.99;;;6.44;53.66
38452;BME280;24231;52.514;13.438;2023-04-26T02:29:43;100911.79;;;6.15;54.39
38452;BME280;24231;52.514;13.438;2023-04-26T02:32:11;100909.11;;;5.58;56.23
38452;BME280;24231;52.514;13.438;2023-04-26T02:34:38;100911.35;;;6.22;54.61
38452;BME280;24231;52.514;13.438;2023-04-26T02:37:06;100908.91;;;5.94;55.86
38452;BME280;24231;52.514;13.438;2023-04-26T02:39:33;100910.37;;;5.90;56.13
38452;BME280;24231;52.514;13.438;2023-04-26T02:42:00;100917.46;;;5.14;57.42
38452;BME280;24231;52.514;13.438;2023-04-26T02:44:28;100909.26;;;5.84;55.82
38452;BME280;24231;52.514;13.438;2023-04-26T02:46:56;100911.51;;;5.61;57.24
38452;BME280;24231;52.514;13.438;2023-04-26T02:49:23;100910.78;;;5.51;56.95
38452;BME280;24231;52.514;13.438;2023-04-26T02:51:50;100909.98;;;5.60;56.68
38452;BME280;24231;52.514;13.438;2023-04-26T02:54:17;100912.95;;;5.52;57.82
38452;BME280;24231;52.514;13.438;2023-04-26T02:56:44;100908.39;;;6.09;55.78
38452;BME280;24231;52.514;13.438;2023-04-26T02:59:11;100911.89;;;6.77;53.37
38452;BME280;24231;52.514;13.438;2023-04-26T03:01:38;100908.89;;;6.85;53.10
38452;BME280;24231;52.514;13.438;2023-04-26T03:04:05;100909.72;;;5.90;54.91
38452;BME280;24231;52.514;13.438;2023-04-26T03:06:33;100909.44;;;6.22;54.12
38452;BME280;24231;52.514;13.438;2023-04-26T03:09:00;100912.89;;;5.89;55.56
38452;BME280;24231;52.514;13.438;2023-04-26T03:11:27;100913.45;;;6.49;53.52
38452;BME280;24231;52.514;13.438;2023-04-26T03:13:54;100919.95;;;5.58;55.88
38452;BME280;24231;52.514;13.438;2023-04-26T03:16:22;100916.64;;;6.55;54.17
38452;BME280;24231;52.514;13.438;2023-04-26T03:18:49;100914.74;;;5.98;55.53
38452;BME280;24231;52.514;13.438;2023-04-26T03:21:16;100920.90;;;6.00;54.79
38452;BME280;24231;52.514;13.438;2023-04-26T03:23:44;100917.31;;;5.34;57.39
38452;BME280;24231;52.514;13.438;2023-04-26T03:26:11;100925.85;;;4.94;59.08
38452;BME280;24231;52.514;13.438;2023-04-26T03:28:38;100915.52;;;5.82;56.73
38452;BME280;24231;52.514;13.438;2023-04-26T03:31:05;100917.64;;;6.02;56.23
38452;BME280;24231;52.514;13.438;2023-04-26T03:33:32;100925.03;;;5.89;56.27
38452;BME280;24231;52.514;13.438;2023-04-26T03:35:58;100928.52;;;5.69;57.36
38452;BME280;24231;52.514;13.438;2023-04-26T03:38:25;100930.63;;;6.60;54.30
38452;BME280;24231;52.514;13.438;2023-04-26T03:40:52;100932.15;;;5.63;57.16
38452;BME280;24231;52.514;13.438;2023-04-26T03:43:18;100928.48;;;5.93;56.09
38452;BME280;24231;52.514;13.438;2023-04-26T03:45:46;100928.25;;;6.15;55.16
38452;BME280;24231;52.514;13.438;2023-04-26T03:48:13;100928.00;;;6.36;55.15
38452;BME280;24231;52.514;13.438;2023-04-26T03:50:40;100930.55;;;6.28;55.21
38452;BME280;24231;52.514;13.438;2023-04-26T03:53:07;100928.01;;;5.98;56.48
38452;BME280;24231;52.514;13.438;2023-04-26T03:55:34;100938.21;;;5.81;56.73
38452;BME280;24231;52.514;13.438;2023-04-26T03:58:00;100932.44;;;6.03;56.70
38452;BME280;24231;52.514;13.438;2023-04-26T04:00:28;100938.38;;;5.71;57.12
38452;BME280;24231;52.514;13.438;2023-04-26T04:02:55;100943.75;;;5.34;58.45
38452;BME280;24231;52.514;13.438;2023-04-26T04:05:22;100947.57;;;5.13;59.39
38452;BME280;24231;52.514;13.438;2023-04-26T04:07:48;100949.30;;;4.98;59.89
38452;BME280;24231;52.514;13.438;2023-04-26T04:10:16;100946.01;;;5.27;58.72
38452;BME280;24231;52.514;13.438;2023-04-26T04:12:43;100944.02;;;5.57;57.75
38452;BME280;24231;52.514;13.438;2023-04-26T04:15:10;100947.35;;;4.90;59.66
38452;BME280;24231;52.514;13.438;2023-04-26T04:17:38;100950.55;;;4.98;58.84
38452;BME280;24231;52.514;13.438;2023-04-26T04:21:13;100945.56;;;6.42;54.79
38452;BME280;24231;52.514;13.438;2023-04-26T04:23:48;100946.23;;;7.21;52.55
38452;BME280;24231;52.514;13.438;2023-04-26T04:26:15;100944.55;;;5.72;56.02
38452;BME280;24231;52.514;13.438;2023-04-26T04:28:43;100946.24;;;6.44;53.70
38452;BME280;24231;52.514;13.438;2023-04-26T04:31:10;100946.18;;;6.84;52.58
38452;BME280;24231;52.514;13.438;2023-04-26T04:33:38;100945.65;;;7.82;50.42
38452;BME280;24231;52.514;13.438;2023-04-26T04:36:06;100948.61;;;7.86;49.67
38452;BME280;24231;52.514;13.438;2023-04-26T04:38:34;100945.85;;;8.17;49.31
38452;BME280;24231;52.514;13.438;2023-04-26T04:41:01;100948.54;;;7.33;51.41
38452;BME280;24231;52.514;13.438;2023-04-26T04:43:28;100952.97;;;8.46;48.06
38452;BME280;24231;52.514;13.438;2023-04-26T04:45:55;100954.43;;;9.02;46.58
38452;BME280;24231;52.514;13.438;2023-04-26T04:48:23;100959.43;;;8.48;47.74
38452;BME280;24231;52.514;13.438;2023-04-26T04:50:50;100956.83;;;8.49;48.03
38452;BME280;24231;52.514;13.438;2023-04-26T04:53:17;100961.66;;;8.64;47.53
38452;BME280;24231;52.514;13.438;2023-04-26T04:55:44;100963.46;;;9.03;46.62
38452;BME280;24231;52.514;13.438;2023-04-26T04:58:12;100964.37;;;9.32;45.56
38452;BME280;24231;52.514;13.438;2023-04-26T05:00:39;100960.03;;;10.55;42.89
38452;BME280;24231;52.514;13.438;2023-04-26T05:03:06;100977.78;;;9.48;45.07
38452;BME280;24231;52.514;13.438;2023-04-26T05:05:34;100958.89;;;10.05;43.86
38452;BME280;24231;52.514;13.438;2023-04-26T05:08:01;100967.43;;;9.75;45.21
38452;BME280;24231;52.514;13.438;2023-04-26T05:10:28;100970.24;;;11.08;42.44
38452;BME280;24231;52.514;13.438;2023-04-26T05:12:55;100967.43;;;11.16;41.38
38452;BME280;24231;52.514;13.438;2023-04-26T05:15:22;100973.73;;;10.42;42.12
38452;BME280;24231;52.514;13.438;2023-04-26T05:17:50;100975.44;;;10.94;40.44
38452;BME280;24231;52.514;13.438;2023-04-26T05:20:17;100974.80;;;11.35;40.56
38452;BME280;24231;52.514;13.438;2023-04-26T05:22:45;100979.61;;;10.75;41.85
38452;BME280;24231;52.514;13.438;2023-04-26T05:25:12;100976.93;;;11.77;39.69
38452;BME280;24231;52.514;13.438;2023-04-26T05:27:40;100979.27;;;12.40;38.28
38452;BME280;24231;52.514;13.438;2023-04-26T05:30:08;100989.20;;;11.28;40.22
38452;BME280;24231;52.514;13.438;2023-04-26T05:32:35;100985.96;;;11.54;40.08
38452;BME280;24231;52.514;13.438;2023-04-26T05:35:03;100989.83;;;12.78;37.75
38452;BME280;24231;52.514;13.438;2023-04-26T05:37:30;100989.86;;;13.21;36.60
38452;BME280;24231;52.514;13.438;2023-04-26T05:39:57;100991.74;;;12.56;37.55
38452;BME280;24231;52.514;13.438;2023-04-26T05:42:24;100995.55;;;12.46;37.76
38452;BME280;24231;52.514;13.438;2023-04-26T05:44:56;101002.47;;;13.01;36.86
38452;BME280;24231;52.514;13.438;2023-04-26T05:47:23;100998.85;;;12.64;37.62
38452;BME280;24231;52.514;13.438;2023-04-26T05:49:50;101001.19;;;13.37;36.19
38452;BME280;24231;52.514;13.438;2023-04-26T05:52:17;101000.40;;;12.96;36.98
38452;BME280;24231;52.514;13.438;2023-04-26T05:54:44;101000.43;;;12.82;37.33
38452;BME280;24231;52.514;13.438;2023-04-26T05:57:12;101002.96;;;13.45;36.03
38452;BME280;24231;52.514;13.438;2023-04-26T05:59:39;100997.68;;;12.61;37.61
38452;BME280;24231;52.514;13.438;2023-04-26T06:02:06;101003.77;;;13.12;36.78
38452;BME280;24231;52.514;13.438;2023-04-26T06:04:33;101006.46;;;13.40;36.10
38452;BME280;24231;52.514;13.438;2023-04-26T06:07:00;101005.84;;;13.13;36.70
38452;BME280;24231;52.514;13.438;2023-04-26T06:09:30;101002.00;;;13.97;35.33
38452;BME280;24231;52.514;13.438;2023-04-26T06:11:57;101010.16;;;13.25;36.04
38452;BME280;24231;52.514;13.438;2023-04-26T06:14:24;101011.43;;;13.62;35.70
38452;BME280;24231;52.514;13.438;2023-04-26T06:16:51;101000.40;;;14.38;34.60
38452;BME280;24231;52.514;13.438;2023-04-26T06:19:18;101004.88;;;14.53;34.20
38452;BME280;24231;52.514;13.438;2023-04-26T06:21:45;101007.57;;;14.52;34.06
38452;BME280;24231;52.514;13.438;2023-04-26T06:24:12;101006.92;;;13.83;35.32
38452;BME280;24231;52.514;13.438;2023-04-26T06:26:39;101005.56;;;14.18;34.99
38452;BME280;24231;52.514;13.438;2023-04-26T06:29:06;101012.74;;;13.49;35.70
38452;BME280;24231;52.514;13.438;2023-04-26T06:31:33;101004.80;;;14.40;34.92
38452;BME280;24231;52.514;13.438;2023-04-26T06:34:01;101000.08;;;13.92;34.98
38452;BME280;24231;52.514;13.438;2023-04-26T06:36:28;101010.05;;;13.64;35.80
38452;BME280;24231;52.514;13.438;2023-04-26T06:38:55;101005.66;;;14.14;34.97
38452;BME280;24231;52.514;13.438;2023-04-26T06:41:22;101021.81;;;13.68;35.24
38452;BME280;24231;52.514;13.438;2023-04-26T06:43:49;101016.65;;;14.76;33.88
38452;BME280;24231;52.514;13.438;2023-04-26T06:46:16;101016.54;;;14.20;34.38
38452;BME280;24231;52.514;13.438;2023-04-26T06:48:43;101013.81;;;14.20;34.47
38452;BME280;24231;52.514;13.438;2023-04-26T06:51:10;101024.98;;;13.20;36.28
38452;BME280;24231;52.514;13.438;2023-04-26T06:53:37;101019.28;;;14.15;34.52
38452;BME280;24231;52.514;13.438;2023-04-26T06:56:05;101012.98;;;14.42;34.48
38452;BME280;24231;52.514;13.438;2023-04-26T06:58:33;101013.55;;;14.86;33.49
38452;BME280;24231;52.514;13.438;2023-04-26T07:00:59;101014.67;;;14.68;33.27
38452;BME280;24231;52.514;13.438;2023-04-26T07:03:26;101015.01;;;14.05;34.79
38452;BME280;24231;52.514;13.438;2023-04-26T07:05:54;101012.30;;;14.68;33.63
38452;BME280;24231;52.514;13.438;2023-04-26T07:08:21;101015.80;;;14.75;33.53
38452;BME280;24231;52.514;13.438;2023-04-26T07:10:48;101019.12;;;13.76;34.88
38452;BME280;24231;52.514;13.438;2023-04-26T07:13:15;101021.04;;;14.69;33.52
38452;BME280;24231;52.514;13.438;2023-04-26T07:15:42;101019.15;;;15.18;32.87
38452;BME280;24231;52.514;13.438;2023-04-26T07:18:09;101022.69;;;15.55;32.34
38452;BME280;24231;52.514;13.438;2023-04-26T07:20:36;101025.20;;;15.67;32.00
38452;BME280;24231;52.514;13.438;2023-04-26T07:23:03;101024.80;;;15.61;32.35
38452;BME280;24231;52.514;13.438;2023-04-26T07:25:30;101029.13;;;15.35;33.03
38452;BME280;24231;52.514;13.438;2023-04-26T07:27:57;101025.97;;;16.33;30.75
38452;BME280;24231;52.514;13.438;2023-04-26T07:30:24;101021.12;;;15.89;31.00
38452;BME280;24231;52.514;13.438;2023-04-26T07:32:51;101022.66;;;16.34;30.58
38452;BME280;24231;52.514;13.438;2023-04-26T07:35:18;101023.58;;;16.65;30.22
38452;BME280;24231;52.514;13.438;2023-04-26T07:37:46;101025.69;;;16.28;31.07
38452;BME280;24231;52.514;13.438;2023-04-26T07:40:13;101022.27;;;15.88;31.10
38452;BME280;24231;52.514;13.438;2023-04-26T07:42:40;101030.20;;;16.22;31.25
38452;BME280;24231;52.514;13.438;2023-04-26T07:45:09;101032.91;;;16.03;31.05
38452;BME280;24231;52.514;13.438;2023-04-26T07:47:36;101038.93;;;14.83;33.05
38452;BME280;24231;52.514;13.438;2023-04-26T07:50:04;101041.87;;;13.87;34.04
38452;BME280;24231;52.514;13.438;2023-04-26T07:52:32;101042.75;;;14.36;33.36
38452;BME280;24231;52.514;13.438;2023-04-26T07:55:00;101047.02;;;14.12;34.01
38452;BME280;24231;52.514;13.438;2023-04-26T07:57:27;101044.42;;;14.11;33.74
38452;BME280;24231;52.514;13.438;2023-04-26T07:59:54;101040.63;;;14.32;33.51
38452;BME280;24231;52.514;13.438;2023-04-26T08:02:21;101045.33;;;13.73;34.33
38452;BME280;24231;52.514;13.438;2023-04-26T08:04:49;101047.10;;;13.53;34.65
38452;BME280;24231;52.514;13.438;2023-04-26T08:07:17;101048.32;;;13.65;34.52
38452;BME280;24231;52.514;13.438;2023-04-26T08:09:44;101053.23;;;13.11;35.10
38452;BME280;24231;52.514;13.438;2023-04-26T08:12:12;101049.00;;;12.73;36.49
38452;BME280;24231;52.514;13.438;2023-04-26T08:14:39;101051.75;;;12.44;36.92
38452;BME280;24231;52.514;13.438;2023-04-26T08:17:07;101053.31;;;12.40;36.96
38452;BME280;24231;52.514;13.438;2023-04-26T08:19:34;101060.89;;;11.62;38.22
38452;BME280;24231;52.514;13.438;2023-04-26T08:22:01;101057.74;;;12.44;36.93
38452;BME280;24231;52.514;13.438;2023-04-26T08:24:29;101066.93;;;12.14;37.22
38452;BME280;24231;52.514;13.438;2023-04-26T08:26:56;101063.73;;;10.79;39.45
38452;BME280;24231;52.514;13.438;2023-04-26T08:29:23;101058.50;;;12.57;36.39
38452;BME280;24231;52.514;13.438;2023-04-26T08:31:50;101057.61;;;12.94;36.28
38452;BME280;24231;52.514;13.438;2023-04-26T08:34:17;101059.24;;;13.67;34.40
38452;BME280;24231;52.514;13.438;2023-04-26T08:36:44;101054.21;;;13.66;34.52
38452;BME280;24231;52.514;13.438;2023-04-26T08:39:11;101051.35;;;14.43;33.24
38452;BME280;24231;52.514;13.438;2023-04-26T08:41:42;101053.79;;;14.36;32.88
38452;BME280;24231;52.514;13.438;2023-04-26T08:44:10;101066.04;;;13.99;32.82
38452;BME280;24231;52.514;13.438;2023-04-26T08:46:44;101061.32;;;13.74;33.17
38452;BME280;24231;52.514;13.438;2023-04-26T08:49:24;101072.60;;;13.33;35.57
38452;BME280;24231;52.514;13.438;2023-04-26T08:51:56;101067.57;;;12.71;37.12
38452;BME280;24231;52.514;13.438;2023-04-26T08:54:25;101067.65;;;13.05;36.47
38452;BME280;24231;52.514;13.438;2023-04-26T08:56:53;101072.12;;;13.94;35.30
38452;BME280;24231;52.514;13.438;2023-04-26T08:59:22;101063.28;;;14.47;34.61
38452;BME280;24231;52.514;13.438;2023-04-26T09:01:49;101059.23;;;15.17;33.03
38452;BME280;24231;52.514;13.438;2023-04-26T09:04:16;101070.56;;;13.92;35.39
38452;BME280;24231;52.514;13.438;2023-04-26T09:06:43;101062.05;;;14.08;34.53
38452;BME280;24231;52.514;13.438;2023-04-26T09:09:12;101062.56;;;13.86;33.41
38452;BME280;24231;52.514;13.438;2023-04-26T09:11:53;101068.25;;;13.15;35.67
38452;BME280;24231;52.514;13.438;2023-04-26T09:14:20;101069.59;;;13.40;33.62
38452;BME280;24231;52.514;13.438;2023-04-26T09:16:47;101064.20;;;13.06;34.74
38452;BME280;24231;52.514;13.438;2023-04-26T09:19:14;101069.57;;;13.41;33.66
38452;BME280;24231;52.514;13.438;2023-04-26T09:21:42;101068.79;;;12.95;34.18
38452;BME280;24231;52.514;13.438;2023-04-26T09:24:10;101064.84;;;12.74;35.38
38452;BME280;24231;52.514;13.438;2023-04-26T09:26:38;101069.86;;;12.42;35.57
38452;BME280;24231;52.514;13.438;2023-04-26T09:29:14;101062.64;;;12.72;34.77
38452;BME280;24231;52.514;13.438;2023-04-26T09:31:43;101062.67;;;13.76;33.20
38452;BME280;24231;52.514;13.438;2023-04-26T09:34:12;101059.71;;;13.90;32.81
38452;BME280;24231;52.514;13.438;2023-04-26T09:36:48;101064.36;;;13.43;33.26
38452;BME280;24231;52.514;13.438;2023-04-26T09:39:29;101066.35;;;13.15;33.66
38452;BME280;24231;52.514;13.438;2023-04-26T09:41:57;101063.96;;;12.75;34.68
38452;BME280;24231;52.514;13.438;2023-04-26T09:44:25;101068.58;;;12.48;35.29
38452;BME280;24231;52.514;13.438;2023-04-26T09:47:02;101071.72;;;13.28;33.97
38452;BME280;24231;52.514;13.438;2023-04-26T09:49:31;101071.68;;;13.82;33.08
38452;BME280;24231;52.514;13.438;2023-04-26T09:52:01;101066.63;;;13.73;32.95
38452;BME280;24231;52.514;13.438;2023-04-26T09:54:41;101064.01;;;12.60;34.52
38452;BME280;24231;52.514;13.438;2023-04-26T09:57:09;101068.08;;;11.91;35.75
38452;BME280;24231;52.514;13.438;2023-04-26T09:59:45;101063.19;;;12.90;34.45
38452;BME280;24231;52.514;13.438;2023-04-26T10:02:16;101067.80;;;13.07;33.06
38452;BME280;24231;52.514;13.438;2023-04-26T10:04:44;101064.25;;;13.22;32.22
38452;BME280;24231;52.514;13.438;2023-04-26T10:07:13;101060.58;;;13.26;32.52
38452;BME280;24231;52.514;13.438;2023-04-26T10:09:42;101058.04;;;12.61;33.24
38452;BME280;24231;52.514;13.438;2023-04-26T10:12:10;101069.24;;;13.14;32.21
38452;BME280;24231;52.514;13.438;2023-04-26T10:14:37;101070.11;;;12.94;32.75
38452;BME280;24231;52.514;13.438;2023-04-26T10:17:05;101063.41;;;12.92;32.66
38452;BME280;24231;52.514;13.438;2023-04-26T10:19:33;101071.14;;;12.31;33.37
38452;BME280;24231;52.514;13.438;2023-04-26T10:22:04;101071.81;;;12.05;33.57
38452;BME280;24231;52.514;13.438;2023-04-26T10:24:33;101070.31;;;11.83;33.52
38452;BME280;24231;52.514;13.438;2023-04-26T10:27:01;101072.67;;;11.79;33.78
38452;BME280;24231;52.514;13.438;2023-04-26T10:30:06;101066.62;;;12.45;32.78
38452;BME280;24231;52.514;13.438;2023-04-26T10:33:10;101075.94;;;11.57;33.81
38452;BME280;24231;52.514;13.438;2023-04-26T10:36:09;101076.90;;;12.49;32.66
38452;BME280;24231;52.514;13.438;2023-04-26T10:38:39;101078.06;;;12.78;32.21
38452;BME280;24231;52.514;13.438;2023-04-26T10:41:38;101083.49;;;13.31;32.62
38452;BME280;24231;52.514;13.438;2023-04-26T10:44:43;101082.94;;;12.36;34.31
38452;BME280;24231;52.514;13.438;2023-04-26T10:47:22;101085.11;;;12.47;34.56
38452;BME280;24231;52.514;13.438;2023-04-26T10:49:50;101086.46;;;11.57;36.39
38452;BME280;24231;52.514;13.438;2023-04-26T10:52:18;101085.48;;;11.51;36.77
38452;BME280;24231;52.514;13.438;2023-04-26T10:54:51;101086.85;;;12.05;35.97
38452;BME280;24231;52.514;13.438;2023-04-26T10:57:20;101088.46;;;12.09;35.54
38452;BME280;24231;52.514;13.438;2023-04-26T11:00:25;101085.38;;;12.45;34.98
38452;BME280;24231;52.514;13.438;2023-04-26T11:02:56;101078.95;;;12.69;34.24
38452;BME280;24231;52.514;13.438;2023-04-26T11:05:57;101076.59;;;13.06;33.41
38452;BME280;24231;52.514;13.438;2023-04-26T11:08:26;101073.45;;;12.56;33.10
38452;BME280;24231;52.514;13.438;2023-04-26T11:10:59;101076.33;;;13.03;33.09
38452;BME280;24231;52.514;13.438;2023-04-26T11:13:31;101083.03;;;12.19;33.74
38452;BME280;24231;52.514;13.438;2023-04-26T11:16:00;101076.94;;;12.36;32.95
38452;BME280;24231;52.514;13.438;2023-04-26T11:18:28;101079.01;;;11.31;34.44
38452;BME280;24231;52.514;13.438;2023-04-26T11:20:55;101077.00;;;12.19;33.65
38452;BME280;24231;52.514;13.438;2023-04-26T11:23:23;101079.53;;;11.42;34.91
38452;BME280;24231;52.514;13.438;2023-04-26T11:25:50;101080.74;;;12.53;32.99
38452;BME280;24231;52.514;13.438;2023-04-26T11:28:18;101071.93;;;12.35;32.99
38452;BME280;24231;52.514;13.438;2023-04-26T11:30:45;101075.02;;;12.29;32.88
38452;BME280;24231;52.514;13.438;2023-04-26T11:33:17;101075.84;;;12.21;32.84
38452;BME280;24231;52.514;13.438;2023-04-26T11:35:45;101082.06;;;12.54;32.45
38452;BME280;24231;52.514;13.438;2023-04-26T11:38:12;101078.03;;;12.63;31.57
38452;BME280;24231;52.514;13.438;2023-04-26T11:40:40;101079.71;;;11.42;33.36
38452;BME280;24231;52.514;13.438;2023-04-26T11:43:09;101077.91;;;12.18;32.42
38452;BME280;24231;52.514;13.438;2023-04-26T11:45:37;101076.65;;;11.98;32.62
38452;BME280;24231;52.514;13.438;2023-04-26T11:48:06;101069.36;;;12.35;32.39
38452;BME280;24231;52.514;13.438;2023-04-26T11:50:38;101071.51;;;11.60;33.50
38452;BME280;24231;52.514;13.438;2023-04-26T11:53:07;101086.26;;;11.14;33.97
38452;BME280;24231;52.514;13.438;2023-04-26T11:55:34;101089.02;;;11.56;33.64
38452;BME280;24231;52.514;13.438;2023-04-26T11:58:09;101085.62;;;11.61;33.70
38452;BME280;24231;52.514;13.438;2023-04-26T12:00:36;101089.53;;;12.76;32.10
38452;BME280;24231;52.514;13.438;2023-04-26T12:03:05;101099.31;;;11.68;33.75
38452;BME280;24231;52.514;13.438;2023-04-26T12:05:32;101097.59;;;11.44;33.41
38452;BME280;24231;52.514;13.438;2023-04-26T12:08:00;101088.13;;;11.45;32.73
38452;BME280;24231;52.514;13.438;2023-04-26T12:10:29;101088.35;;;11.91;32.62
38452;BME280;24231;52.514;13.438;2023-04-26T12:12:58;101091.10;;;11.52;32.61
38452;BME280;24231;52.514;13.438;2023-04-26T12:15:29;101082.42;;;11.69;33.03
38452;BME280;24231;52.514;13.438;2023-04-26T12:17:58;101092.58;;;11.64;33.09
38452;BME280;24231;52.514;13.438;2023-04-26T12:20:27;101092.33;;;12.09;32.61
38452;BME280;24231;52.514;13.438;2023-04-26T12:23:04;101092.61;;;12.58;32.08
38452;BME280;24231;52.514;13.438;2023-04-26T12:25:32;101093.02;;;12.24;32.42
38452;BME280;24231;52.514;13.438;2023-04-26T12:28:00;101093.33;;;11.54;33.73
38452;BME280;24231;52.514;13.438;2023-04-26T12:30:28;101086.81;;;12.30;33.10
38452;BME280;24231;52.514;13.438;2023-04-26T12:32:55;101090.24;;;12.82;31.93
38452;BME280;24231;52.514;13.438;2023-04-26T12:35:23;101096.25;;;12.28;32.77
38452;BME280;24231;52.514;13.438;2023-04-26T12:37:51;101090.55;;;12.88;32.53
38452;BME280;24231;52.514;13.438;2023-04-26T12:40:18;101087.93;;;12.59;32.81
38452;BME280;24231;52.514;13.438;2023-04-26T12:42:47;101098.86;;;13.16;32.19
38452;BME280;24231;52.514;13.438;2023-04-26T12:45:16;101104.78;;;11.85;34.72
38452;BME280;24231;52.514;13.438;2023-04-26T12:47:43;101099.08;;;10.81;36.64
38452;BME280;24231;52.514;13.438;2023-04-26T12:50:10;101105.85;;;11.98;34.61
38452;BME280;24231;52.514;13.438;2023-04-26T12:52:44;101098.13;;;12.78;33.35